createdAt,value
2017-10-31T00:00:03.487Z,7.1
2017-10-31T00:05:02.997Z,7.1
2017-10-31T00:10:02.956Z,7.1
2017-10-31T00:15:02.551Z,7.4
2017-10-31T00:20:03.092Z,7.4
2017-10-31T00:25:02.665Z,7.4
2017-10-31T00:30:03.039Z,7.1
2017-10-31T00:35:02.633Z,7.1
2017-10-31T00:40:03.194Z,7.1
2017-10-31T00:45:02.633Z,7.4
2017-10-31T00:50:03.261Z,7.4
2017-10-31T00:55:02.896Z,7.4
2017-10-31T01:00:03.367Z,7.4
2017-10-31T01:05:03.252Z,7.4
2017-10-31T01:10:02.880Z,7.4
2017-10-31T01:15:03.171Z,7.1
2017-10-31T01:20:02.564Z,6.9
2017-10-31T01:25:03.119Z,6.9
2017-10-31T01:30:02.701Z,7.1
2017-10-31T01:35:03.330Z,7.1
2017-10-31T01:40:02.944Z,7.4
2017-10-31T01:45:03.384Z,7.4
2017-10-31T01:50:02.958Z,7.4
2017-10-31T01:55:03.367Z,7.4
2017-10-31T02:00:02.747Z,7.4
2017-10-31T02:05:03.290Z,7.4
2017-10-31T02:10:02.830Z,7.4
2017-10-31T02:15:02.399Z,7.4
2017-10-31T02:20:03.060Z,7.4
2017-10-31T02:25:02.696Z,7.4
2017-10-31T02:30:03.275Z,7.4
2017-10-31T02:35:02.716Z,7.4
2017-10-31T02:40:03.175Z,7.4
2017-10-31T02:45:02.740Z,7.1
2017-10-31T02:50:03.191Z,7.1
2017-10-31T02:55:02.678Z,7.1
2017-10-31T03:00:03.306Z,7.1
2017-10-31T03:05:02.913Z,7.1
2017-10-31T03:10:02.488Z,7.1
2017-10-31T03:15:02.918Z,7.1
2017-10-31T03:20:02.521Z,7.1
2017-10-31T03:25:03.030Z,7.1
2017-10-31T03:30:03.379Z,7.1
2017-10-31T03:35:02.971Z,7.1
2017-10-31T03:40:02.556Z,7.1
2017-10-31T03:45:03.020Z,7.1
2017-10-31T03:50:02.440Z,7.1
2017-10-31T03:55:02.924Z,7.1
2017-10-31T04:00:02.496Z,7.4
2017-10-31T04:05:03.114Z,7.1
2017-10-31T04:10:02.522Z,7.1
2017-10-31T04:15:03.055Z,7.1
2017-10-31T04:20:02.597Z,7.1
2017-10-31T04:25:03.230Z,7.1
2017-10-31T04:30:02.772Z,7.1
2017-10-31T04:35:03.234Z,7.0
2017-10-31T04:40:02.674Z,7.0
2017-10-31T04:45:03.256Z,6.9
2017-10-31T04:50:02.685Z,6.9
2017-10-31T04:55:03.283Z,7.0
2017-10-31T05:00:02.852Z,7.0
2017-10-31T05:05:03.192Z,7.1
2017-10-31T05:10:02.753Z,7.1
2017-10-31T05:15:03.269Z,7.1
2017-10-31T05:20:02.753Z,7.0
2017-10-31T05:25:03.346Z,7.0
2017-10-31T05:30:02.846Z,7.0
2017-10-31T05:35:02.422Z,6.9
2017-10-31T05:40:03.101Z,7.0
2017-10-31T05:45:02.610Z,7.1
2017-10-31T05:50:03.049Z,7.1
2017-10-31T05:55:02.606Z,7.1
2017-10-31T06:00:03.062Z,7.1
2017-10-31T06:05:02.512Z,7.4
2017-10-31T06:10:02.926Z,7.4
2017-10-31T06:15:02.386Z,7.4
2017-10-31T06:20:03.087Z,7.4
2017-10-31T06:30:03.002Z,7.4
2017-10-31T06:35:02.547Z,7.5
2017-10-31T06:40:03.143Z,7.6
2017-10-31T06:45:02.527Z,7.6
2017-10-31T06:50:03.184Z,7.6
2017-10-31T06:55:02.715Z,7.6
2017-10-31T07:00:03.165Z,7.6
2017-10-31T07:05:02.741Z,7.9
2017-10-31T07:10:03.188Z,7.9
2017-10-31T07:15:02.583Z,7.9
2017-10-31T07:20:03.079Z,8.0
2017-10-31T07:25:02.419Z,8.0
2017-10-31T07:30:02.758Z,7.9
2017-10-31T07:35:03.978Z,8.0
2017-10-31T07:40:02.586Z,8.0
2017-10-31T07:45:03.185Z,8.0
2017-10-31T07:50:02.599Z,8.1
2017-10-31T07:55:03.096Z,8.1
2017-10-31T08:00:02.454Z,8.1
2017-10-31T08:05:02.843Z,8.1
2017-10-31T08:10:03.310Z,8.3
2017-10-31T08:15:02.708Z,8.5
2017-10-31T08:20:03.184Z,8.5
2017-10-31T08:25:02.781Z,8.5
2017-10-31T08:30:03.183Z,8.5
2017-10-31T08:35:02.731Z,8.5
2017-10-31T08:40:03.210Z,8.5
2017-10-31T08:45:02.653Z,8.6
2017-10-31T08:50:03.061Z,8.6
2017-10-31T08:55:02.574Z,8.6
2017-10-31T09:00:02.992Z,8.8
2017-10-31T09:05:02.569Z,8.8
2017-10-31T09:10:03.083Z,9.0
2017-10-31T09:15:02.468Z,9.1
2017-10-31T09:20:03.084Z,9.1
2017-10-31T09:25:02.642Z,9.5
2017-10-31T09:30:03.087Z,9.5
2017-10-31T09:35:02.524Z,9.5
2017-10-31T09:40:02.901Z,9.5
2017-10-31T09:45:03.295Z,9.5
2017-10-31T09:50:02.819Z,9.5
2017-10-31T09:55:02.436Z,9.6
2017-10-31T10:00:02.976Z,9.8
2017-10-31T10:05:02.627Z,10.0
2017-10-31T10:10:03.073Z,10.0
2017-10-31T10:15:02.545Z,10.0
2017-10-31T10:20:03.192Z,10.1
2017-10-31T10:25:02.609Z,10.1
2017-10-31T10:30:03.222Z,10.1
2017-10-31T10:35:02.811Z,10.3
2017-10-31T10:40:02.426Z,10.5
2017-10-31T10:45:02.899Z,10.5
2017-10-31T10:50:03.297Z,10.6
2017-10-31T10:55:02.713Z,10.6
2017-10-31T11:00:03.249Z,10.5
2017-10-31T11:05:02.798Z,10.8
2017-10-31T11:10:03.276Z,11.1
2017-10-31T11:15:02.634Z,11.1
2017-10-31T11:25:02.741Z,11.1
2017-10-31T11:30:03.276Z,11.3
2017-10-31T11:35:02.741Z,11.3
2017-10-31T11:40:03.246Z,11.3
2017-10-31T11:45:02.744Z,11.3
2017-10-31T11:50:03.148Z,11.3
2017-10-31T11:55:02.550Z,11.1
2017-10-31T12:00:03.125Z,11.0
2017-10-31T12:05:02.709Z,10.8
2017-10-31T12:10:03.172Z,10.8
2017-10-31T12:15:02.754Z,10.6
2017-10-31T12:20:03.243Z,10.6
2017-10-31T12:25:02.849Z,10.6
2017-10-31T12:30:03.079Z,10.6
2017-10-31T12:35:03.222Z,10.5
2017-10-31T12:40:02.758Z,10.5
2017-10-31T12:45:02.406Z,10.5
2017-10-31T12:50:02.881Z,10.5
2017-10-31T12:55:02.473Z,10.5
2017-10-31T13:00:02.872Z,10.3
2017-10-31T13:05:03.330Z,10.3
2017-10-31T13:10:03.081Z,10.3
2017-10-31T13:15:02.466Z,10.5
2017-10-31T13:20:02.981Z,10.5
2017-10-31T13:25:02.651Z,10.5
2017-10-31T13:30:03.075Z,10.5
2017-10-31T13:35:03.353Z,10.3
2017-10-31T13:40:03.161Z,10.5
2017-10-31T13:45:02.535Z,10.5
2017-10-31T13:50:03.110Z,10.3
2017-10-31T13:55:03.137Z,10.3
2017-10-31T14:00:02.929Z,10.3
2017-10-31T14:05:02.773Z,10.3
2017-10-31T14:10:02.621Z,10.3
2017-10-31T14:15:03.315Z,10.1
2017-10-31T14:20:03.000Z,10.3
2017-10-31T14:25:02.905Z,10.1
2017-10-31T14:30:02.634Z,10.1
2017-10-31T14:35:02.450Z,10.1
2017-10-31T14:40:02.993Z,10.0
2017-10-31T14:45:02.845Z,9.8
2017-10-31T14:50:02.590Z,9.6
2017-10-31T14:55:03.267Z,9.5
2017-10-31T15:00:02.996Z,9.6
2017-10-31T15:05:02.583Z,9.6
2017-10-31T15:10:02.573Z,9.6
2017-10-31T15:15:03.317Z,9.8
2017-10-31T15:20:02.870Z,9.6
2017-10-31T15:25:02.478Z,9.6
2017-10-31T15:30:03.321Z,9.6
2017-10-31T15:35:02.990Z,9.5
2017-10-31T15:40:02.793Z,9.5
2017-10-31T15:45:02.450Z,9.3
2017-10-31T15:50:03.189Z,9.3
2017-10-31T15:55:02.840Z,9.3
2017-10-31T16:00:02.730Z,9.3
2017-10-31T16:05:02.465Z,9.3
2017-10-31T16:10:03.159Z,9.3
2017-10-31T16:15:02.742Z,9.3
2017-10-31T16:20:02.498Z,9.3
2017-10-31T16:25:03.080Z,9.3
2017-10-31T16:30:02.712Z,9.3
2017-10-31T16:35:02.534Z,9.5
2017-10-31T16:40:03.357Z,9.5
2017-10-31T16:45:02.959Z,9.5
2017-10-31T16:50:02.528Z,9.6
2017-10-31T16:55:03.221Z,9.6
2017-10-31T17:00:02.872Z,9.6
2017-10-31T17:05:02.399Z,9.6
2017-10-31T17:10:03.105Z,9.5
2017-10-31T17:15:02.730Z,9.6
2017-10-31T17:20:02.613Z,9.6
2017-10-31T17:25:03.253Z,9.6
2017-10-31T17:30:03.000Z,9.6
2017-10-31T17:35:02.784Z,9.6
2017-10-31T17:40:02.374Z,9.6
2017-10-31T17:45:02.965Z,9.6
2017-10-31T17:50:02.449Z,9.8
2017-10-31T17:55:03.108Z,9.8
2017-10-31T18:00:02.679Z,9.8
2017-10-31T18:05:02.566Z,9.8
2017-10-31T18:10:03.377Z,9.8
2017-10-31T18:15:03.086Z,9.8
2017-10-31T18:20:02.785Z,9.8
2017-10-31T18:25:02.517Z,9.8
2017-10-31T18:30:03.305Z,9.8
2017-10-31T18:35:02.797Z,9.8
2017-10-31T18:40:03.360Z,9.6
2017-10-31T18:45:02.907Z,9.6
2017-10-31T18:50:02.622Z,9.5
2017-10-31T18:55:02.438Z,9.5
2017-10-31T19:00:03.089Z,9.5
2017-10-31T19:05:02.572Z,9.5
2017-10-31T19:10:03.297Z,9.5
2017-10-31T19:15:02.888Z,9.3
2017-10-31T19:20:02.552Z,9.3
2017-10-31T19:25:03.217Z,9.3
2017-10-31T19:30:02.841Z,9.3
2017-10-31T19:35:02.665Z,9.3
2017-10-31T19:40:03.219Z,9.3
2017-10-31T19:45:02.867Z,9.5
2017-10-31T19:50:02.510Z,9.5
2017-10-31T19:55:03.202Z,9.5
2017-10-31T20:00:02.948Z,9.5
2017-10-31T20:05:02.647Z,9.5
2017-10-31T20:10:02.513Z,9.5
2017-10-31T20:15:03.263Z,9.5
2017-10-31T20:20:03.015Z,9.5
2017-10-31T20:25:02.579Z,9.6
2017-10-31T20:30:03.111Z,9.6
2017-10-31T20:35:02.724Z,9.6
2017-10-31T20:40:03.309Z,9.6
2017-10-31T20:45:02.863Z,9.6
2017-10-31T20:50:02.476Z,9.6
2017-10-31T20:55:03.161Z,9.6
2017-10-31T21:05:02.929Z,9.8
2017-10-31T21:10:02.679Z,9.6
2017-10-31T21:15:02.361Z,9.6
2017-10-31T21:20:02.957Z,9.5
2017-10-31T21:25:02.601Z,9.6
2017-10-31T21:30:03.214Z,9.5
2017-10-31T21:35:02.903Z,9.6
2017-10-31T21:40:02.476Z,9.6
2017-10-31T21:45:03.088Z,9.6
2017-10-31T21:50:02.915Z,9.6
2017-10-31T21:55:02.641Z,9.6
2017-10-31T22:00:03.404Z,9.6
2017-10-31T22:05:03.088Z,9.6
2017-10-31T22:10:02.698Z,9.6
2017-10-31T22:15:03.365Z,9.6
2017-10-31T22:20:03.216Z,9.6
2017-10-31T22:25:02.880Z,9.6
2017-10-31T22:30:02.744Z,9.6
2017-10-31T22:35:02.408Z,9.6
2017-10-31T22:40:03.005Z,9.6
2017-10-31T22:45:02.635Z,9.8
2017-10-31T22:50:02.543Z,9.8
2017-10-31T22:55:03.189Z,9.6
2017-10-31T23:00:02.863Z,9.8
2017-10-31T23:05:02.544Z,9.8
2017-10-31T23:10:03.316Z,9.8
2017-10-31T23:15:02.770Z,9.8
2017-10-31T23:20:02.687Z,9.8
2017-10-31T23:25:03.380Z,9.8
2017-10-31T23:30:03.082Z,9.8
2017-10-31T23:35:02.794Z,9.6
2017-10-31T23:40:02.648Z,9.8
2017-10-31T23:45:03.336Z,9.8
2017-10-31T23:50:02.985Z,9.8
2017-10-31T23:55:02.693Z,9.8
